Time;durP1;ratioP1;P1;durP2;ratioP2;P2;SDS_P1;SDS_P2;PMS_P1;PMS_P2;Temp;Humidity;BMP_temperature;BMP_pressure;BME280_temperature;BME280_humidity;BME280_pressure;Samples;Min_cycle;Max_cycle;Signal;HPM_P1;HPM_P2
2023/04/01 00:00:19;;;;;;;9.02;1.67;;;;;;;8.29;100.00;99043.69;4928559;29;20039;-89
2023/04/01 00:02:45;;;;;;;7.15;1.60;;;;;;;8.24;100.00;99038.41;4930405;29;20023;-89
2023/04/01 00:05:11;;;;;;;9.13;1.77;;;;;;;8.29;100.00;99051.69;4933692;29;20039;-88
2023/04/01 00:07:38;;;;;;;6.93;1.85;;;;;;;8.26;100.00;99041.59;4924111;29;20055;-89
2023/04/01 00:10:05;;;;;;;6.72;1.85;;;;;;;8.27;100.00;99045.06;4918035;29;20135;-89
2023/04/01 00:12:31;;;;;;;7.25;1.80;;;;;;;8.29;100.00;99050.91;4914709;29;20111;-89
2023/04/01 00:14:56;;;;;;;7.87;1.80;;;;;;;8.27;100.00;99055.75;4897981;29;20160;-89
2023/04/01 00:17:22;;;;;;;5.27;1.73;;;;;;;8.25;100.00;99048.00;4921479;29;20081;-89
2023/04/01 00:19:48;;;;;;;9.95;2.08;;;;;;;8.25;100.00;99050.66;4925166;29;20440;-89
2023/04/01 00:22:13;;;;;;;8.73;2.42;;;;;;;8.19;100.00;99043.81;4915177;29;20024;-89
2023/04/01 00:24:39;;;;;;;10.77;2.20;;;;;;;8.23;100.00;99044.81;4927037;29;20068;-89
2023/04/01 00:27:07;;;;;;;9.73;2.17;;;;;;;8.23;100.00;99049.38;4919717;29;20039;-89
2023/04/01 00:29:34;;;;;;;6.40;2.10;;;;;;;8.18;100.00;99043.00;4913682;29;20544;-89
2023/04/01 00:32:00;;;;;;;9.40;2.53;;;;;;;8.23;100.00;99049.38;4914475;29;20027;-89
2023/04/01 00:34:26;;;;;;;9.37;2.10;;;;;;;8.18;100.00;99050.25;4897087;29;20916;-89
2023/04/01 00:36:52;;;;;;;7.00;2.10;;;;;;;8.21;100.00;99052.34;4897390;29;20036;-89
2023/04/01 00:39:18;;;;;;;8.17;2.03;;;;;;;8.23;100.00;99060.03;4914430;29;20066;-89
2023/04/01 00:41:43;;;;;;;9.30;2.80;;;;;;;8.19;100.00;99057.94;4914413;29;20288;-88
2023/04/01 00:44:31;;;;;;;6.50;2.50;;;;;;;8.20;100.00;99061.44;4914552;29;20036;-89
2023/04/01 00:46:57;;;;;;;5.43;2.43;;;;;;;8.22;100.00;99064.56;4897315;29;20046;-88
2023/04/01 00:49:29;;;;;;;7.00;2.10;;;;;;;8.18;100.00;99052.91;4913793;29;20436;-89
2023/04/01 00:51:56;;;;;;;3.90;2.20;;;;;;;8.15;100.00;99058.81;4917107;29;20040;-89
2023/04/01 00:54:25;;;;;;;6.63;2.50;;;;;;;8.22;100.00;99071.81;4917793;29;20272;-89
2023/04/01 00:57:31;;;;;;;6.47;2.42;;;;;;;8.21;100.00;99071.03;4917849;29;20057;-89
2023/04/01 00:59:57;;;;;;;9.20;2.60;;;;;;;8.21;100.00;99072.88;4914978;29;20250;-89
2023/04/01 01:02:23;;;;;;;9.32;2.40;;;;;;;8.19;100.00;99075.84;4900204;29;20035;-90
2023/04/01 01:04:49;;;;;;;7.20;2.63;;;;;;;8.13;100.00;99069.75;4917549;29;20043;-89
2023/04/01 01:07:32;;;;;;;5.03;2.60;;;;;;;8.19;100.00;99084.63;4916804;29;20030;-89
2023/04/01 01:10:15;;;;;;;5.40;2.90;;;;;;;8.13;100.00;99068.97;4916971;29;20032;-89
2023/04/01 01:13:03;;;;;;;4.70;2.83;;;;;;;8.21;100.00;99078.22;4917109;29;20062;-89
2023/04/01 01:15:34;;;;;;;8.53;2.73;;;;;;;8.21;100.00;99080.88;4915584;29;20055;-89
2023/04/01 01:18:08;;;;;;;4.33;3.53;;;;;;;8.20;100.00;99074.75;4916754;29;20373;-89
2023/04/01 01:20:52;;;;;;;5.70;3.22;;;;;;;8.19;100.00;99089.19;4914756;29;20032;-89
2023/04/01 01:23:52;;;;;;;6.18;3.88;;;;;;;8.12;100.00;99070.84;4917151;29;20080;-89
2023/04/01 01:26:33;;;;;;;7.35;3.35;;;;;;;8.18;100.00;99084.91;4916910;29;20032;-89
2023/04/01 01:29:16;;;;;;;6.57;3.92;;;;;;;8.20;100.00;99082.78;4916171;29;20575;-89
2023/04/01 01:31:58;;;;;;;6.85;3.80;;;;;;;8.21;100.00;99083.56;4916549;29;20036;-89
2023/04/01 01:34:35;;;;;;;7.75;3.35;;;;;;;8.21;100.00;99079.03;4915619;29;20083;-89
2023/04/01 01:37:18;;;;;;;4.57;3.57;;;;;;;8.22;100.00;99091.25;4916575;29;20043;-90
2023/04/01 01:39:50;;;;;;;6.33;3.93;;;;;;;8.21;100.00;99089.69;4916296;29;20296;-89
2023/04/01 01:42:18;;;;;;;4.35;3.67;;;;;;;8.19;100.00;99089.19;4925622;29;20024;-90
2023/04/01 01:44:47;;;;;;;6.57;4.60;;;;;;;8.18;100.00;99091.03;4929530;29;20160;-89
2023/04/01 01:47:14;;;;;;;7.18;4.47;;;;;;;8.16;100.00;99098.53;4917281;29;20133;-89
2023/04/01 01:49:41;;;;;;;7.50;4.80;;;;;;;8.17;100.00;99096.69;4927928;29;20024;-90
2023/04/01 01:52:09;;;;;;;6.57;4.80;;;;;;;8.21;100.00;99107.56;4924797;29;20024;-90
2023/04/01 01:54:35;;;;;;;7.88;4.95;;;;;;;8.18;100.00;99111.59;4917732;29;20400;-89
2023/04/01 01:57:07;;;;;;;9.03;5.60;;;;;;;8.20;100.00;99114.78;4917826;29;20032;-89
2023/04/01 01:59:36;;;;;;;6.72;5.57;;;;;;;8.18;100.00;99108.94;4930407;29;20035;-89
2023/04/01 02:02:07;;;;;;;8.07;5.70;;;;;;;8.16;100.00;99114.53;4925029;29;20051;-90
2023/04/01 02:04:36;;;;;;;8.50;5.95;;;;;;;8.18;100.00;99119.59;4928390;29;20039;-89
2023/04/01 02:07:07;;;;;;;11.83;5.50;;;;;;;8.14;100.00;99115.91;4923862;29;20071;-89
2023/04/01 02:09:34;;;;;;;9.43;6.10;;;;;;;8.12;100.00;99118.06;4918969;29;20328;-89
2023/04/01 02:12:03;;;;;;;9.70;5.82;;;;;;;8.13;100.00;99125.78;4904014;29;20047;-89
2023/04/01 02:14:57;;;;;;;11.90;6.72;;;;;;;8.04;100.00;99117.59;4919743;29;20107;-89
2023/04/01 02:17:29;;;;;;;10.70;6.53;;;;;;;8.04;100.00;99120.25;4916899;29;20038;-89
2023/04/01 02:20:08;;;;;;;10.15;6.65;;;;;;;8.11;100.00;99132.47;4899107;29;20047;-89
2023/04/01 02:22:41;;;;;;;12.65;7.20;;;;;;;8.08;100.00;99128.50;4916507;29;20020;-89
2023/04/01 02:25:13;;;;;;;14.98;7.13;;;;;;;8.06;100.00;99125.34;4916491;29;20507;-89
2023/04/01 02:27:40;;;;;;;13.57;8.63;;;;;;;8.05;100.00;99121.06;4915906;29;20375;-89
2023/04/01 02:30:07;;;;;;;13.90;8.67;;;;;;;8.08;100.00;99130.38;4915765;29;20047;-88
2023/04/01 02:32:37;;;;;;;14.55;8.50;;;;;;;8.00;100.00;99116.59;4914090;29;20051;-87
2023/04/01 02:35:10;;;;;;;18.02;9.02;;;;;;;8.06;100.00;99143.19;4915265;29;20102;-88
2023/04/01 02:37:43;;;;;;;17.05;9.32;;;;;;;7.96;100.00;99125.41;4915091;29;20033;-88
2023/04/01 02:40:11;;;;;;;19.23;8.88;;;;;;;7.96;100.00;99134.22;4915459;29;20039;-88
2023/04/01 02:42:37;;;;;;;17.35;8.60;;;;;;;7.93;100.00;99126.78;4915411;29;20067;-87
2023/04/01 02:45:03;;;;;;;16.87;8.67;;;;;;;7.91;100.00;99122.81;4915705;29;20433;-87
2023/04/01 02:47:29;;;;;;;19.65;9.00;;;;;;;7.99;100.00;99138.19;4914702;29;20028;-87
2023/04/01 02:49:58;;;;;;;21.50;10.90;;;;;;;7.99;100.00;99139.00;4914361;29;20043;-88
2023/04/01 02:52:27;;;;;;;20.73;10.15;;;;;;;7.92;100.00;99138.53;4915071;29;20480;-88
2023/04/01 02:54:53;;;;;;;19.67;10.25;;;;;;;7.99;100.00;99147.00;4915733;29;20051;-87
2023/04/01 02:57:20;;;;;;;20.05;10.40;;;;;;;7.88;100.00;99137.50;4915166;29;20488;-87
2023/04/01 02:59:46;;;;;;;25.13;11.02;;;;;;;7.93;100.00;99142.78;4914495;29;20036;-88
2023/04/01 03:02:11;;;;;;;22.60;10.37;;;;;;;7.99;100.00;99151.53;4915289;29;20024;-88
2023/04/01 03:04:37;;;;;;;24.20;10.33;;;;;;;7.91;100.00;99147.59;4915764;29;20075;-87
2023/04/01 03:07:02;;;;;;;24.83;10.52;;;;;;;7.98;100.00;99157.94;4921838;29;20028;-88
2023/04/01 03:09:28;;;;;;;21.33;10.33;;;;;;;7.91;100.00;99147.59;4922054;29;20099;-88
2023/04/01 03:11:54;;;;;;;23.48;9.45;;;;;;;7.91;100.00;99141.50;4916873;29;20107;-88
2023/04/01 03:14:19;;;;;;;18.47;9.80;;;;;;;7.89;100.00;99147.09;4925700;29;20039;-87
2023/04/01 03:16:46;;;;;;;23.27;9.65;;;;;;;7.95;100.00;99169.97;4898909;29;20078;-87
2023/04/01 03:19:11;;;;;;;21.53;9.70;;;;;;;7.92;100.00;99161.75;4914765;29;20064;-87
2023/04/01 03:21:36;;;;;;;23.57;9.43;;;;;;;7.95;100.00;99171.84;4914515;29;20307;-90
2023/04/01 03:24:02;;;;;;;25.87;10.10;;;;;;;7.91;100.00;99157.50;4913286;29;20044;-87
2023/04/01 03:26:27;;;;;;;19.17;9.13;;;;;;;7.86;100.00;99158.31;4914231;29;20040;-87
2023/04/01 03:28:53;;;;;;;24.05;10.00;;;;;;;7.85;100.00;99162.06;4914636;29;20036;-88
2023/04/01 03:31:18;;;;;;;21.47;9.20;;;;;;;7.93;100.00;99174.78;4914952;29;20416;-87
2023/04/01 03:33:45;;;;;;;20.57;8.97;;;;;;;7.94;100.00;99175.59;4914798;29;20147;-88
2023/04/01 03:36:12;;;;;;;22.83;10.40;;;;;;;7.85;100.00;99170.09;4914652;29;20025;-88
2023/04/01 03:38:39;;;;;;;21.73;9.18;;;;;;;7.90;100.00;99178.00;4914230;29;20043;-88
2023/04/01 03:41:05;;;;;;;20.25;9.10;;;;;;;7.87;100.00;99175.91;4914906;29;20496;-88
2023/04/01 03:43:30;;;;;;;21.70;9.10;;;;;;;7.88;100.00;99174.81;4914673;29;20063;-88
2023/04/01 03:45:59;;;;;;;18.63;8.32;;;;;;;7.87;100.00;99181.25;4914520;29;20103;-87
2023/04/01 03:48:25;;;;;;;19.98;9.50;;;;;;;7.88;100.00;99185.50;4914539;29;20120;-87
2023/04/01 03:50:51;;;;;;;20.13;8.73;;;;;;;7.88;100.00;99185.50;4914373;29;20036;-87
2023/04/01 03:53:17;;;;;;;16.50;8.07;;;;;;;7.85;100.00;99183.41;4915339;29;20051;-87
2023/04/01 03:55:42;;;;;;;20.10;8.63;;;;;;;7.85;100.00;99191.41;4913179;29;20029;-87
2023/04/01 03:58:07;;;;;;;17.70;8.40;;;;;;;7.87;100.00;99186.56;4914037;29;20456;-87
2023/04/01 04:00:33;;;;;;;18.23;8.17;;;;;;;7.87;100.00;99190.06;4913939;29;20024;-87
2023/04/01 04:02:59;;;;;;;17.95;8.43;;;;;;;7.76;100.00;99177.84;4914585;29;20484;-88
2023/04/01 04:05:25;;;;;;;18.17;7.97;;;;;;;7.82;100.00;99183.97;4912097;29;20036;-88
2023/04/01 04:07:51;;;;;;;15.43;7.65;;;;;;;7.85;100.00;99189.53;4914326;29;20111;-87
2023/04/01 04:10:17;;;;;;;12.25;6.63;;;;;;;7.81;100.00;99193.03;4913800;29;20507;-87
2023/04/01 04:12:43;;;;;;;16.55;6.75;;;;;;;7.82;100.00;99194.63;4913881;29;20067;-87
2023/04/01 04:15:09;;;;;;;13.50;6.07;;;;;;;7.81;100.00;99199.16;4914736;29;20060;-87
2023/04/01 04:17:35;;;;;;;12.02;6.63;;;;;;;7.78;100.00;99194.38;4913519;29;20163;-88
2023/04/01 04:20:00;;;;;;;11.60;6.03;;;;;;;7.78;100.00;99201.59;4912544;29;20059;-88
2023/04/01 04:22:26;;;;;;;11.47;6.30;;;;;;;7.72;100.00;99196.28;4913674;29;20524;-87
2023/04/01 04:24:51;;;;;;;11.13;5.37;;;;;;;7.76;100.00;99201.06;4914028;29;20059;-88
2023/04/01 04:27:17;;;;;;;8.20;4.73;;;;;;;7.79;100.00;99219.97;4916633;29;20672;-87
2023/04/01 04:29:43;;;;;;;13.43;6.10;;;;;;;7.79;100.00;99211.19;4917667;29;20040;-87
2023/04/01 04:32:09;;;;;;;10.80;5.60;;;;;;;7.80;100.00;99212.78;4928588;29;20028;-87
2023/04/01 04:34:34;;;;;;;11.23;5.90;;;;;;;7.72;100.00;99208.84;4917913;29;20039;-87
2023/04/01 04:36:59;;;;;;;10.73;6.20;;;;;;;7.80;100.00;99228.78;4919751;29;20036;-87
2023/04/01 04:39:26;;;;;;;9.63;5.70;;;;;;;7.77;100.00;99224.00;4909232;29;20527;-87
2023/04/01 04:41:51;;;;;;;11.83;5.87;;;;;;;7.71;100.00;99225.91;4917930;29;20160;-88
2023/04/01 04:44:17;;;;;;;9.63;5.13;;;;;;;7.67;100.00;99219.53;4917089;29;20362;-88
2023/04/01 04:46:42;;;;;;;8.90;5.07;;;;;;;7.73;100.00;99221.88;4916819;29;20024;-88
2023/04/01 04:49:08;;;;;;;9.97;5.20;;;;;;;7.73;100.00;99237.88;4916474;29;20115;-87
2023/04/01 04:51:35;;;;;;;8.13;4.80;;;;;;;7.64;100.00;99222.75;4916864;29;20052;-88
2023/04/01 04:54:01;;;;;;;10.50;5.50;;;;;;;7.66;100.00;99224.09;4917242;29;20032;-88
2023/04/01 04:56:26;;;;;;;6.88;4.30;;;;;;;7.70;100.00;99240.31;4917494;29;20087;-88
2023/04/01 04:58:51;;;;;;;8.47;5.00;;;;;;;7.70;100.00;99246.44;4921479;29;20040;-87
2023/04/01 05:01:18;;;;;;;6.23;4.23;;;;;;;7.67;100.00;99240.88;4904960;29;20032;-88
2023/04/01 05:03:43;;;;;;;8.18;4.22;;;;;;;7.69;100.00;99254.72;4925304;29;20106;-88
2023/04/01 05:06:10;;;;;;;8.82;4.45;;;;;;;7.62;100.00;99244.38;4903772;29;20055;-88
2023/04/01 05:08:36;;;;;;;7.33;5.00;;;;;;;7.61;100.00;99252.63;4917785;29;20036;-88
2023/04/01 05:11:02;;;;;;;7.00;4.83;;;;;;;7.63;100.00;99250.47;4917228;29;20383;-88
2023/04/01 05:13:28;;;;;;;5.78;4.22;;;;;;;7.57;100.00;99245.19;4900408;29;20150;-88
2023/04/01 05:15:54;;;;;;;10.50;5.05;;;;;;;7.65;100.00;99259.00;4900270;29;20730;-88
2023/04/01 05:18:19;;;;;;;7.53;4.53;;;;;;;7.57;100.00;99261.19;4900089;29;20039;-88
2023/04/01 05:20:50;;;;;;;6.10;4.30;;;;;;;7.64;100.00;99271.53;4917503;29;20327;-88
2023/04/01 05:23:16;;;;;;;9.57;4.40;;;;;;;7.63;100.00;99267.28;4900230;29;20110;-88
2023/04/01 05:25:41;;;;;;;7.87;4.37;;;;;;;7.59;100.00;99271.56;4913575;29;20657;-88
2023/04/01 05:28:06;;;;;;;9.17;4.50;;;;;;;7.55;100.00;99265.19;4917027;29;20819;-88
2023/04/01 05:30:32;;;;;;;9.67;4.63;;;;;;;7.61;100.00;99280.09;4916020;29;20091;-87
2023/04/01 05:32:57;;;;;;;8.30;5.17;;;;;;;7.52;100.00;99273.72;4916987;29;20396;-87
2023/04/01 05:35:24;;;;;;;7.70;4.40;;;;;;;7.61;100.00;99289.94;4916529;29;20389;-88
2023/04/01 05:37:49;;;;;;;8.55;4.80;;;;;;;7.55;100.00;99278.53;4898855;29;20048;-87
2023/04/01 05:40:14;;;;;;;9.03;4.43;;;;;;;7.60;100.00;99291.81;4915032;29;20028;-87
2023/04/01 05:42:40;;;;;;;7.80;4.03;;;;;;;7.54;100.00;99292.91;4915935;29;20036;-88
2023/04/01 05:45:06;;;;;;;7.20;4.50;;;;;;;7.57;100.00;99295.03;4916730;29;20028;-88
2023/04/01 05:47:31;;;;;;;7.85;4.78;;;;;;;7.57;100.00;99295.03;4914837;29;20048;-87
2023/04/01 05:49:56;;;;;;;8.37;4.23;;;;;;;7.51;100.00;99288.94;4906480;23;20032;-85
2023/04/01 05:52:22;;;;;;;8.57;4.33;;;;;;;7.64;100.00;99310.72;4931662;29;20107;-85
2023/04/01 05:54:48;;;;;;;8.57;4.90;;;;;;;7.65;100.00;99315.78;4927735;29;20032;-86
2023/04/01 05:57:13;;;;;;;9.40;4.80;;;;;;;7.67;100.00;99321.63;4925472;29;20064;-86
2023/04/01 05:59:38;;;;;;;10.47;5.17;;;;;;;7.60;100.00;99315.81;4933686;29;20043;-86
2023/04/01 06:02:04;;;;;;;9.20;5.70;;;;;;;7.60;100.00;99313.16;4924446;29;20031;-87
2023/04/01 06:04:37;;;;;;;8.67;4.67;;;;;;;7.68;100.00;99331.22;4918612;29;20036;-85
2023/04/01 06:07:10;;;;;;;12.90;5.37;;;;;;;7.62;100.00;99329.69;4915869;29;20287;-85
2023/04/01 06:09:35;;;;;;;14.73;6.82;;;;;;;7.70;100.00;99336.31;4912693;29;20131;-86
2023/04/01 06:12:39;;;;;;;14.83;6.23;;;;;;;7.74;100.00;99342.69;4915302;29;20116;-85
2023/04/01 06:15:30;;;;;;;15.63;6.82;;;;;;;7.72;100.00;99348.28;4911589;29;20492;-86
2023/04/01 06:18:23;;;;;;;16.55;7.05;;;;;;;7.76;100.00;99356.50;4914515;29;20043;-85
2023/04/01 06:21:10;;;;;;;18.42;8.05;;;;;;;7.78;100.00;99356.25;4914874;29;20035;-85
2023/04/01 06:23:43;;;;;;;13.88;6.95;;;;;;;7.70;100.00;99345.06;4912407;29;20083;-85
2023/04/01 06:26:19;;;;;;;15.00;7.30;;;;;;;7.83;100.00;99357.00;4907908;29;20028;-86
2023/04/01 06:28:53;;;;;;;14.63;6.57;;;;;;;7.87;100.00;99373.25;4914391;29;20115;-86
2023/04/01 06:31:42;;;;;;;14.73;6.68;;;;;;;7.89;100.00;99376.44;4913169;29;20033;-88
2023/04/01 06:34:45;;;;;;;12.70;6.27;;;;;;;7.93;100.00;99371.38;4906503;29;20091;-85
2023/04/01 06:37:55;;;;;;;15.50;6.60;;;;;;;7.95;100.00;99374.53;4907508;29;20383;-86
2023/04/01 06:40:47;;;;;;;15.23;6.57;;;;;;;7.94;100.00;99384.44;4884393;29;20663;-86
2023/04/01 06:43:34;;;;;;;14.75;7.00;;;;;;;7.95;100.00;99377.22;4911069;29;20051;-86
2023/04/01 06:46:22;;;;;;;16.55;7.35;;;;;;;7.95;100.00;99387.88;4913264;29;20032;-86
2023/04/01 06:49:04;;;;;;;21.27;9.10;;;;;;;7.97;100.00;99386.56;4906696;29;20063;-85
2023/04/01 06:52:13;;;;;;;22.38;8.95;;;;;;;8.01;100.00;99389.47;4922744;29;20048;-85
2023/04/01 06:54:44;;;;;;;24.05;9.40;;;;;;;8.06;100.00;99396.63;4866612;29;20486;-86
2023/04/01 06:57:35;;;;;;;24.33;9.97;;;;;;;8.10;100.00;99398.50;4871114;29;20029;-86
2023/04/01 07:00:04;;;;;;;22.90;10.40;;;;;;;8.04;100.00;99400.38;4901176;29;20085;-86
2023/04/01 07:02:47;;;;;;;29.75;10.98;;;;;;;8.12;100.00;99406.22;4895412;29;20047;-86
2023/04/01 07:05:14;;;;;;;29.85;11.70;;;;;;;8.14;100.00;99406.72;4914239;29;20071;-86
2023/04/01 07:07:48;;;;;;;31.55;12.60;;;;;;;8.22;100.00;99416.81;4914946;29;20028;-85
2023/04/01 07:10:44;;;;;;;36.53;13.23;;;;;;;8.26;100.00;99415.19;4913960;29;20035;-86
2023/04/01 07:13:21;;;;;;;31.23;13.40;;;;;;;8.33;100.00;99422.88;4914952;29;20043;-86
2023/04/01 07:16:29;;;;;;;37.53;14.00;;;;;;;8.37;100.00;99423.16;4912899;29;20051;-86
2023/04/01 07:19:08;;;;;;;33.97;14.17;;;;;;;8.36;100.00;99419.66;4916463;29;20300;-86
2023/04/01 07:21:44;;;;;;;39.45;14.50;;;;;;;8.37;100.00;99426.59;4918305;29;20035;-86
2023/04/01 07:24:17;;;;;;;37.55;15.68;;;;;;;8.39;100.00;99432.47;4914705;29;20384;-86
2023/04/01 07:26:42;;;;;;;36.78;15.10;;;;;;;8.45;100.00;99444.72;4918625;29;20028;-86
2023/04/01 07:29:13;;;;;;;37.13;15.70;;;;;;;8.51;100.00;99445.50;4915982;29;20040;-86
2023/04/01 07:31:50;;;;;;;38.10;14.70;;;;;;;8.57;100.00;99456.94;4914239;29;20020;-86
2023/04/01 07:34:26;;;;;;;37.85;16.15;;;;;;;8.58;100.00;99456.63;4914355;29;20465;-85
2023/04/01 07:37:02;;;;;;;35.97;14.57;;;;;;;8.51;100.00;99448.16;4914592;29;20027;-86
2023/04/01 07:39:52;;;;;;;38.15;15.38;;;;;;;8.61;100.00;99463.31;4913502;29;20035;-86
2023/04/01 07:42:50;;;;;;;36.50;15.55;;;;;;;8.69;100.00;99473.41;4914242;29;20043;-85
2023/04/01 07:45:35;;;;;;;36.97;14.00;;;;;;;8.70;100.00;99474.22;4888908;29;20064;-86
2023/04/01 07:48:24;;;;;;;33.37;13.67;;;;;;;8.67;100.00;99474.75;4914215;29;20666;-86
2023/04/01 07:51:22;;;;;;;39.00;15.25;;;;;;;8.64;100.00;99466.22;4914643;29;20134;-86
2023/04/01 07:54:02;;;;;;;37.58;14.23;;;;;;;8.81;100.00;99481.06;4916558;29;20036;-85
2023/04/01 07:57:10;;;;;;;38.78;15.05;;;;;;;8.86;100.00;99485.56;4915887;29;20032;-86
2023/04/01 08:00:22;;;;;;;35.25;14.60;;;;;;;8.88;100.00;99494.09;4900014;29;20052;-85
2023/04/01 08:02:59;;;;;;;33.47;14.10;;;;;;;8.81;100.00;99489.06;4891235;29;20049;-85
2023/04/01 08:05:34;;;;;;;37.43;15.70;;;;;;;8.88;100.00;99497.56;4925559;29;20084;-85
2023/04/01 08:08:10;;;;;;;41.77;15.40;;;;;;;8.95;100.00;99507.94;4923324;29;20292;-85
2023/04/01 08:10:41;;;;;;;37.08;15.65;;;;;;;9.05;100.00;99512.41;4921175;29;20093;-85
2023/04/01 08:13:44;;;;;;;35.75;15.73;;;;;;;9.15;100.00;99512.31;4918829;29;20064;-85
2023/04/01 08:16:17;;;;;;;32.25;15.30;;;;;;;9.18;100.00;99501.06;4907475;29;20040;-86
2023/04/01 08:19:06;;;;;;;30.85;14.95;;;;;;;9.36;100.00;99526.31;4919591;29;20028;-86
2023/04/01 08:21:47;;;;;;;32.47;14.85;;;;;;;9.32;100.00;99532.47;4918994;29;20043;-85
2023/04/01 08:24:37;;;;;;;32.07;15.80;;;;;;;9.29;100.00;99528.50;4918947;29;20028;-86
2023/04/01 08:27:16;;;;;;;31.65;14.10;;;;;;;9.19;100.00;99526.72;4919028;29;20131;-86
2023/04/01 08:29:58;;;;;;;31.67;14.30;;;;;;;9.15;100.00;99539.03;4955140;23;20098;-86
2023/04/01 08:32:36;;;;;;;29.23;15.98;;;;;;;9.15;100.00;99531.03;4918745;29;20027;-86
2023/04/01 08:35:30;;;;;;;31.65;15.57;;;;;;;9.17;100.00;99525.41;4919090;29;20035;-86
2023/04/01 08:38:02;;;;;;;30.03;14.17;;;;;;;9.26;100.00;99544.31;4919073;29;20116;-87
2023/04/01 08:40:47;;;;;;;29.07;14.80;;;;;;;9.38;100.00;99547.41;4918523;29;20296;-87
2023/04/01 08:43:50;;;;;;;26.90;13.45;;;;;;;9.47;100.00;99551.09;4922408;29;20654;-86
2023/04/01 08:46:36;;;;;;;30.23;15.10;;;;;;;9.55;100.00;99558.47;4904712;29;20036;-86
2023/04/01 08:49:12;;;;;;;29.15;14.75;;;;;;;9.53;100.00;99562.53;4921590;29;20028;-84
2023/04/01 08:51:59;;;;;;;26.42;13.43;;;;;;;9.50;100.00;99565.75;4923684;29;20032;-86
2023/04/01 08:54:45;;;;;;;27.10;14.48;;;;;;;9.50;100.00;99568.44;4920247;29;20118;-85
2023/04/01 08:57:34;;;;;;;25.40;12.77;;;;;;;9.54;100.00;99574.81;4919833;29;20028;-86
2023/04/01 09:00:23;;;;;;;25.13;13.63;;;;;;;9.59;100.00;99584.66;4918323;29;20291;-85
2023/04/01 09:03:28;;;;;;;26.13;13.32;;;;;;;9.61;100.00;99587.88;4891741;29;20115;-85
2023/04/01 09:06:21;;;;;;;24.80;12.32;;;;;;;9.60;100.00;99591.63;4916795;29;20416;-85
2023/04/01 09:09:11;;;;;;;24.23;12.27;;;;;;;9.47;100.00;99593.06;4918527;29;20115;-86
2023/04/01 09:11:58;;;;;;;21.90;11.88;;;;;;;9.57;100.00;99600.19;4916554;29;20024;-85
2023/04/01 09:14:47;;;;;;;18.02;10.55;;;;;;;9.55;100.00;99603.16;4917581;29;20449;-84
2023/04/01 09:17:44;;;;;;;19.25;10.65;;;;;;;9.57;100.00;99609.03;4917816;29;20036;-85
2023/04/01 09:20:44;;;;;;;18.63;11.30;;;;;;;9.75;100.00;99607.53;4916715;29;20064;-87
2023/04/01 09:23:38;;;;;;;23.03;11.60;;;;;;;10.13;100.00;99621.06;4916994;29;20339;-86
2023/04/01 09:26:26;;;;;;;18.10;11.38;;;;;;;10.28;100.00;99614.75;4891936;29;20488;-86
2023/04/01 09:28:54;;;;;;;18.23;11.27;;;;;;;10.32;100.00;99620.31;4899110;29;20040;-86
2023/04/01 09:31:38;;;;;;;19.45;11.70;;;;;;;10.33;100.00;99619.25;4917523;29;20105;-86
2023/04/01 09:34:42;;;;;;;18.25;10.57;;;;;;;10.48;100.00;99626.34;4917632;29;20523;-86
2023/04/01 09:37:21;;;;;;;20.77;12.02;;;;;;;10.72;100.00;99628.97;4904500;29;20052;-86
2023/04/01 09:40:10;;;;;;;18.43;11.00;;;;;;;10.89;100.00;99633.84;4916377;29;20103;-86
2023/04/01 09:43:03;;;;;;;11.57;7.70;;;;;;;10.99;100.00;99635.56;4917035;29;20290;-86
2023/04/01 09:45:43;;;;;;;10.82;7.35;;;;;;;10.96;100.00;99640.72;4900406;29;20030;-86
2023/04/01 09:48:32;;;;;;;10.88;8.00;;;;;;;11.07;100.00;99647.53;4917095;29;20028;-85
2023/04/01 09:51:06;;;;;;;12.18;8.80;;;;;;;11.14;100.00;99647.16;4916594;29;20052;-86
2023/04/01 09:53:56;;;;;;;11.93;8.27;;;;;;;11.24;100.00;99648.91;4915321;29;20040;-87
2023/04/01 09:56:49;;;;;;;15.25;10.23;;;;;;;11.18;100.00;99653.53;4900651;29;20052;-86
2023/04/01 09:59:38;;;;;;;11.53;9.73;;;;;;;11.04;100.00;99656.97;4917303;29;20123;-86
2023/04/01 10:02:41;;;;;;;10.18;8.93;;;;;;;11.02;100.00;99663.72;4899554;29;20100;-87
2023/04/01 10:05:36;;;;;;;11.98;8.77;;;;;;;10.95;100.00;99653.34;4917255;29;20544;-87
2023/04/01 10:08:29;;;;;;;11.43;9.13;;;;;;;10.85;100.00;99656.97;4929304;29;20040;-86
2023/04/01 10:11:31;;;;;;;9.57;8.48;;;;;;;10.93;100.00;99671.59;5042279;23;20050;-86
2023/04/01 10:13:59;;;;;;;9.10;7.82;;;;;;;10.89;100.00;99665.22;4942942;29;20036;-86
2023/04/01 10:16:55;;;;;;;11.70;8.20;;;;;;;10.81;100.00;99665.84;4939325;29;20212;-86
2023/04/01 10:19:58;;;;;;;10.93;9.20;;;;;;;10.79;100.00;99676.84;4933139;29;20281;-86
2023/04/01 10:22:59;;;;;;;11.88;9.32;;;;;;;10.74;100.00;99677.72;4917507;29;20039;-88
2023/04/01 10:26:01;;;;;;;13.13;8.90;;;;;;;10.59;100.00;99677.91;4916851;29;20434;-85
2023/04/01 10:29:03;;;;;;;13.18;8.80;;;;;;;10.49;100.00;99686.03;4915664;29;20040;-86
2023/04/01 10:31:56;;;;;;;13.43;9.75;;;;;;;10.51;100.00;99686.56;4916904;29;20090;-86
2023/04/01 10:34:33;;;;;;;16.13;10.48;;;;;;;10.46;100.00;99679.38;4916718;29;20032;-85
2023/04/01 10:37:10;;;;;;;13.03;9.87;;;;;;;10.30;100.00;99687.56;4916474;29;20043;-88
2023/04/01 10:40:07;;;;;;;16.45;9.82;;;;;;;10.21;100.00;99696.50;4916273;29;20028;-87
2023/04/01 10:43:10;;;;;;;15.63;10.52;;;;;;;10.05;100.00;99688.56;4916312;29;20089;-87
2023/04/01 10:46:23;;;;;;;16.13;10.88;;;;;;;10.06;100.00;99686.72;5170880;27;20694;-86
2023/04/01 10:49:20;;;;;;;16.17;10.70;;;;;;;10.02;100.00;99689.16;5150515;27;20074;-86
2023/04/01 10:52:13;;;;;;;20.17;12.17;;;;;;;10.07;100.00;99691.78;5129544;28;20493;-86
2023/04/01 10:55:12;;;;;;;21.17;12.50;;;;;;;10.17;100.00;99703.47;5130075;28;20031;-86
2023/04/01 10:58:13;;;;;;;19.33;12.90;;;;;;;10.37;100.00;99702.47;5132500;28;20055;-86
2023/04/01 11:01:03;;;;;;;20.70;13.43;;;;;;;10.57;100.00;99698.81;5136330;27;20055;-85
2023/04/01 11:04:02;;;;;;;16.25;11.93;;;;;;;10.43;100.00;99712.09;5150718;27;20031;-86
2023/04/01 11:07:07;;;;;;;17.80;12.55;;;;;;;10.47;100.00;99709.63;5128114;28;20487;-86
2023/04/01 11:10:18;;;;;;;19.80;12.10;;;;;;;10.56;100.00;99718.66;5123282;28;20068;-86
2023/04/01 11:13:16;;;;;;;19.87;12.10;;;;;;;10.59;100.00;99710.06;5137213;27;20356;-87
2023/04/01 11:16:04;;;;;;;23.30;12.68;;;;;;;10.56;100.00;99714.09;5132685;27;20077;-86
2023/04/01 11:18:47;;;;;;;19.92;13.00;;;;;;;10.47;100.00;99723.03;5131204;28;20377;-86
2023/04/01 11:21:46;;;;;;;19.45;12.98;;;;;;;10.37;100.00;99723.91;5134075;27;20452;-86
2023/04/01 11:24:55;;;;;;;20.63;12.13;;;;;;;10.39;100.00;99724.44;5118635;28;20431;-87
2023/04/01 11:27:26;;;;;;;18.75;11.73;;;;;;;10.40;100.00;99726.84;5050307;28;20079;-87
2023/04/01 11:30:10;;;;;;;20.42;12.98;;;;;;;10.34;100.00;99732.47;5124218;28;20042;-86
2023/04/01 11:33:00;;;;;;;18.53;13.30;;;;;;;10.25;100.00;99729.63;5136082;28;20073;-86
2023/04/01 11:35:56;;;;;;;20.13;12.65;;;;;;;10.15;100.00;99744.72;5128912;27;20038;-86
2023/04/01 11:38:40;;;;;;;19.25;13.43;;;;;;;10.15;100.00;99744.72;5139080;27;20031;-85
2023/04/01 11:41:26;;;;;;;19.88;13.13;;;;;;;10.06;100.00;99754.41;5129009;27;20027;-86
2023/04/01 11:43:54;;;;;;;22.15;12.43;;;;;;;10.02;100.00;99756.06;5128016;27;20035;-86
2023/04/01 11:46:37;;;;;;;18.33;12.77;;;;;;;9.99;100.00;99759.31;5128850;28;20027;-85
2023/04/01 11:49:45;;;;;;;23.57;13.27;;;;;;;10.02;100.00;99753.41;5127655;28;20022;-86
2023/04/01 11:52:35;;;;;;;22.07;12.70;;;;;;;10.07;100.00;99756.00;5099530;27;20353;-85
2023/04/01 11:55:25;;;;;;;22.13;13.27;;;;;;;10.15;100.00;99763.44;5126269;27;20031;-86
2023/04/01 11:57:56;;;;;;;22.13;13.98;;;;;;;10.30;100.00;99765.22;5114403;28;20024;-86
2023/04/01 12:00:40;;;;;;;21.00;14.43;;;;;;;10.43;100.00;99758.41;5094504;28;20074;-87
2023/04/01 12:03:46;;;;;;;21.05;13.98;;;;;;;10.57;100.00;99771.94;5113829;28;20486;-86
2023/04/01 12:06:41;;;;;;;18.30;12.23;;;;;;;10.59;100.00;99780.50;5086341;28;20071;-86
2023/04/01 12:09:09;;;;;;;15.67;12.67;;;;;;;10.73;100.00;99772.59;5113944;28;20348;-86